createdAt,value
2018-04-05T00:00:22.723Z,975.65
2018-04-05T00:01:22.664Z,975.67
2018-04-05T00:02:22.605Z,975.68
2018-04-05T00:03:22.546Z,975.63
2018-04-05T00:04:22.486Z,975.74
2018-04-05T00:05:22.430Z,975.78
2018-04-05T00:06:22.371Z,975.75
2018-04-05T00:07:22.314Z,975.65
2018-04-05T00:08:22.255Z,975.68
2018-04-05T00:09:22.195Z,975.75
2018-04-05T00:10:22.136Z,975.76
2018-04-05T00:11:22.077Z,975.62
2018-04-05T00:12:22.018Z,975.66
2018-04-05T00:13:21.959Z,975.71
2018-04-05T00:14:21.902Z,975.62
2018-04-05T00:15:21.843Z,975.66
2018-04-05T00:16:21.784Z,975.71
2018-04-05T00:17:21.728Z,975.70
2018-04-05T00:18:21.669Z,975.68
2018-04-05T00:19:21.610Z,975.75
2018-04-05T00:20:21.550Z,975.68
2018-04-05T00:21:21.494Z,975.73
2018-04-05T00:22:21.436Z,975.65
2018-04-05T00:23:21.378Z,975.68
2018-04-05T00:24:21.316Z,975.73
2018-04-05T00:25:21.273Z,975.74
2018-04-05T00:26:21.200Z,975.74
2018-04-05T00:27:21.141Z,975.71
2018-04-05T00:28:21.084Z,975.70
2018-04-05T00:29:21.025Z,975.71
2018-04-05T00:30:20.964Z,975.71
2018-04-05T00:31:20.906Z,975.75
2018-04-05T00:32:20.855Z,975.68
2018-04-05T00:33:20.790Z,975.72
2018-04-05T00:34:20.731Z,975.72
2018-04-05T00:35:20.672Z,975.66
2018-04-05T00:36:20.616Z,975.64
2018-04-05T00:37:20.554Z,975.64
2018-04-05T00:38:20.495Z,975.62
2018-04-05T00:39:20.446Z,975.60
2018-04-05T00:40:20.381Z,975.60
2018-04-05T00:41:20.321Z,975.57
2018-04-05T00:42:20.263Z,975.62
2018-04-05T00:43:20.203Z,975.64
2018-04-05T00:44:20.143Z,975.62
2018-04-05T00:45:20.085Z,975.63
2018-04-05T00:46:20.028Z,975.64
2018-04-05T00:47:19.968Z,975.65
2018-04-05T00:48:19.918Z,975.65
2018-04-05T00:49:19.851Z,975.61
2018-04-05T00:50:19.792Z,975.60
2018-04-05T00:51:19.733Z,975.64
2018-04-05T00:52:19.677Z,975.61
2018-04-05T00:53:19.621Z,975.72
2018-04-05T00:54:19.557Z,975.66
2018-04-05T00:55:19.499Z,975.67
2018-04-05T00:56:19.440Z,975.63
2018-04-05T00:57:19.382Z,975.64
2018-04-05T00:58:19.323Z,975.61
2018-04-05T00:59:19.263Z,975.61
2018-04-05T01:00:19.206Z,975.61
2018-04-05T01:01:19.147Z,975.67
2018-04-05T01:02:19.089Z,975.61
2018-04-05T01:03:19.030Z,975.58
2018-04-05T01:04:18.971Z,975.68
2018-04-05T01:05:18.911Z,975.68
2018-04-05T01:06:18.855Z,975.67
2018-04-05T01:07:18.794Z,975.68
2018-04-05T01:08:18.736Z,975.65
2018-04-05T01:09:18.678Z,975.72
2018-04-05T01:10:18.620Z,975.67
2018-04-05T01:11:18.560Z,975.69
2018-04-05T01:12:18.504Z,975.74
2018-04-05T01:13:18.442Z,975.74
2018-04-05T01:14:18.387Z,975.66
2018-04-05T01:15:18.323Z,975.69
2018-04-05T01:16:18.267Z,975.65
2018-04-05T01:17:18.211Z,975.66
2018-04-05T01:18:18.154Z,975.69
2018-04-05T01:19:18.089Z,975.67
2018-04-05T01:20:18.032Z,975.64
2018-04-05T01:21:17.973Z,975.63
2018-04-05T01:22:17.914Z,975.62
2018-04-05T01:23:17.855Z,975.58
2018-04-05T01:24:17.798Z,975.61
2018-04-05T01:25:17.737Z,975.55
2018-04-05T01:26:17.680Z,975.63
2018-04-05T01:27:17.632Z,975.61
2018-04-05T01:28:17.568Z,975.58
2018-04-05T01:29:17.504Z,975.57
2018-04-05T01:30:17.445Z,975.59
2018-04-05T01:31:17.385Z,975.59
2018-04-05T01:32:17.326Z,975.56
2018-04-05T01:33:17.269Z,975.60
2018-04-05T01:34:17.215Z,975.62
2018-04-05T01:35:17.151Z,975.62
2018-04-05T01:36:17.093Z,975.64
2018-04-05T01:37:17.033Z,975.59
2018-04-05T01:38:16.974Z,975.65
2018-04-05T01:39:16.917Z,975.65
2018-04-05T01:40:16.858Z,975.63
2018-04-05T01:41:16.800Z,975.68
2018-04-05T01:42:16.741Z,975.67
2018-04-05T01:43:16.681Z,975.71
2018-04-05T01:44:16.628Z,975.73
2018-04-05T01:45:16.572Z,975.66
2018-04-05T01:46:16.507Z,975.66
2018-04-05T01:47:16.450Z,975.68
2018-04-05T01:48:16.388Z,975.65
2018-04-05T01:49:16.328Z,975.63
2018-04-05T01:50:16.268Z,975.71
2018-04-05T01:51:16.211Z,975.71
2018-04-05T01:52:16.152Z,975.71
2018-04-05T01:53:16.092Z,975.75
2018-04-05T01:54:16.035Z,975.76
2018-04-05T01:55:15.977Z,975.72
2018-04-05T01:56:15.915Z,975.65
2018-04-05T01:57:15.859Z,975.79
2018-04-05T01:58:15.799Z,975.72
2018-04-05T01:59:15.740Z,975.78
2018-04-05T02:00:15.682Z,975.77
2018-04-05T02:01:15.622Z,975.80
2018-04-05T02:02:15.562Z,975.86
2018-04-05T02:03:15.505Z,975.89
2018-04-05T02:04:15.445Z,975.89
2018-04-05T02:05:15.386Z,975.87
2018-04-05T02:06:15.334Z,975.88
2018-04-05T02:07:15.270Z,975.84
2018-04-05T02:08:15.218Z,975.85
2018-04-05T02:09:15.152Z,975.91
2018-04-05T02:10:15.095Z,975.81
2018-04-05T02:11:15.034Z,975.89
2018-04-05T02:12:14.977Z,975.91
2018-04-05T02:13:14.917Z,975.90
2018-04-05T02:14:14.859Z,975.97
2018-04-05T02:15:14.798Z,975.97
2018-04-05T02:16:14.740Z,976.02
2018-04-05T02:17:14.681Z,975.98
2018-04-05T02:18:14.624Z,976.01
2018-04-05T02:19:14.563Z,975.95
2018-04-05T02:20:14.512Z,975.84
2018-04-05T02:21:14.456Z,975.87
2018-04-05T02:22:14.388Z,975.98
2018-04-05T02:23:14.329Z,975.96
2018-04-05T02:24:14.270Z,975.90
2018-04-05T02:25:14.214Z,975.97
2018-04-05T02:26:14.154Z,976.00
2018-04-05T02:27:14.094Z,975.97
2018-04-05T02:28:14.034Z,975.96
2018-04-05T02:29:13.977Z,976.00
2018-04-05T02:30:13.918Z,976.00
2018-04-05T02:31:13.859Z,976.00
2018-04-05T02:32:13.800Z,976.07
2018-04-05T02:33:13.742Z,976.00
2018-04-05T02:34:13.685Z,976.03
2018-04-05T02:35:13.627Z,976.03
2018-04-05T02:36:13.566Z,976.06
2018-04-05T02:37:13.508Z,976.15
2018-04-05T02:38:13.448Z,976.08
2018-04-05T02:39:13.392Z,976.15
2018-04-05T02:40:13.329Z,976.10
2018-04-05T02:41:13.272Z,976.16
2018-04-05T02:42:13.214Z,976.18
2018-04-05T02:43:13.154Z,976.18
2018-04-05T02:44:13.098Z,976.17
2018-04-05T02:45:13.038Z,976.20
2018-04-05T02:46:12.993Z,976.19
2018-04-05T02:47:12.918Z,976.26
2018-04-05T02:48:12.859Z,976.29
2018-04-05T02:49:12.801Z,976.29
2018-04-05T02:50:12.740Z,976.31
2018-04-05T02:51:12.683Z,976.30
2018-04-05T02:52:12.622Z,976.29
2018-04-05T02:53:12.562Z,976.23
2018-04-05T02:54:12.504Z,976.26
2018-04-05T02:55:12.444Z,976.31
2018-04-05T02:56:12.387Z,976.24
2018-04-05T02:57:12.327Z,976.23
2018-04-05T02:58:12.268Z,976.31
2018-04-05T02:59:12.209Z,976.30
2018-04-05T03:00:12.152Z,976.29
2018-04-05T03:01:12.094Z,976.27
2018-04-05T03:02:12.033Z,976.27
2018-04-05T03:03:11.971Z,976.30
2018-04-05T03:04:11.914Z,976.35
2018-04-05T03:05:11.857Z,976.33
2018-04-05T03:06:11.814Z,976.34
2018-04-05T03:07:11.736Z,976.38
2018-04-05T03:08:11.677Z,976.31
2018-04-05T03:09:11.617Z,976.40
2018-04-05T03:10:11.563Z,976.37
2018-04-05T03:11:11.499Z,976.35
2018-04-05T03:12:11.444Z,976.33
2018-04-05T03:13:11.384Z,976.32
2018-04-05T03:14:11.324Z,976.32
2018-04-05T03:15:11.264Z,976.31
2018-04-05T03:16:11.205Z,976.35
2018-04-05T03:17:11.153Z,976.43
2018-04-05T03:18:11.091Z,976.37
2018-04-05T03:19:11.036Z,976.39
2018-04-05T03:20:10.969Z,976.39
2018-04-05T03:21:10.909Z,976.38
2018-04-05T03:22:10.853Z,976.42
2018-04-05T03:23:10.791Z,976.39
2018-04-05T03:24:10.735Z,976.39
2018-04-05T03:25:10.677Z,976.35
2018-04-05T03:26:10.618Z,976.37
2018-04-05T03:27:10.558Z,976.36
2018-04-05T03:28:10.498Z,976.43
2018-04-05T03:29:10.439Z,976.44
2018-04-05T03:30:10.382Z,976.43
2018-04-05T03:31:10.328Z,976.41
2018-04-05T03:32:10.264Z,976.41
2018-04-05T03:33:10.207Z,976.46
2018-04-05T03:34:10.146Z,976.46
2018-04-05T03:35:10.086Z,976.45
2018-04-05T03:36:10.031Z,976.46
2018-04-05T03:37:09.971Z,976.47
2018-04-05T03:38:09.913Z,976.50
2018-04-05T03:39:09.852Z,976.52
2018-04-05T03:40:09.794Z,976.53
2018-04-05T03:41:09.788Z,976.50
2018-04-05T03:42:09.677Z,976.55
2018-04-05T03:43:09.618Z,976.48
2018-04-05T03:44:09.560Z,976.52
2018-04-05T03:45:09.504Z,976.52
2018-04-05T03:46:09.444Z,976.47
2018-04-05T03:47:09.383Z,976.55
2018-04-05T03:48:09.326Z,976.54
2018-04-05T03:49:09.265Z,976.56
2018-04-05T03:50:09.209Z,976.56
2018-04-05T03:51:09.148Z,976.62
2018-04-05T03:52:09.091Z,976.57
2018-04-05T03:53:09.032Z,976.60
2018-04-05T03:54:08.981Z,976.56
2018-04-05T03:55:08.914Z,976.61
2018-04-05T03:56:08.857Z,976.59
2018-04-05T03:57:08.799Z,976.52
2018-04-05T03:58:08.741Z,976.53
2018-04-05T03:59:08.680Z,976.55
2018-04-05T04:00:08.622Z,976.60
2018-04-05T04:01:08.563Z,976.55
2018-04-05T04:02:08.506Z,976.53
2018-04-05T04:03:08.445Z,976.59
2018-04-05T04:04:08.416Z,976.65
2018-04-05T04:05:08.329Z,976.58
2018-04-05T04:06:08.272Z,976.58
2018-04-05T04:07:08.212Z,976.59
2018-04-05T04:08:08.154Z,976.61
2018-04-05T04:09:08.095Z,976.68
2018-04-05T04:10:08.040Z,976.68
2018-04-05T04:11:07.977Z,976.70
2018-04-05T04:12:07.918Z,976.70
2018-04-05T04:13:07.861Z,976.77
2018-04-05T04:14:07.804Z,976.77
2018-04-05T04:15:07.744Z,976.76
2018-04-05T04:16:07.685Z,976.81
2018-04-05T04:17:07.688Z,976.77
2018-04-05T04:18:07.569Z,976.83
2018-04-05T04:19:07.516Z,976.84
2018-04-05T04:20:07.451Z,976.88
2018-04-05T04:21:07.393Z,976.87
2018-04-05T04:22:07.335Z,976.89
2018-04-05T04:23:07.276Z,976.87
2018-04-05T04:24:07.219Z,976.92
2018-04-05T04:25:07.159Z,976.96
2018-04-05T04:26:07.106Z,976.92
2018-04-05T04:27:07.042Z,976.94
2018-04-05T04:28:06.985Z,976.94
2018-04-05T04:29:06.925Z,976.93
2018-04-05T04:30:06.866Z,976.99
2018-04-05T04:31:06.811Z,977.02
2018-04-05T04:32:06.750Z,976.97
2018-04-05T04:33:06.695Z,977.04
2018-04-05T04:34:06.636Z,977.09
2018-04-05T04:35:06.577Z,977.10
2018-04-05T04:36:06.518Z,977.08
2018-04-05T04:37:06.462Z,977.08
2018-04-05T04:38:06.401Z,977.12
2018-04-05T04:39:06.343Z,977.09
2018-04-05T04:40:06.283Z,977.14
2018-04-05T04:41:06.226Z,977.12
2018-04-05T04:42:06.167Z,977.09
2018-04-05T04:43:06.107Z,977.13
2018-04-05T04:44:06.050Z,977.17
2018-04-05T04:45:05.991Z,977.21
2018-04-05T04:46:05.935Z,977.20
2018-04-05T04:47:05.876Z,977.21
2018-04-05T04:48:05.816Z,977.18
2018-04-05T04:49:05.761Z,977.22
2018-04-05T04:50:05.701Z,977.25
2018-04-05T04:51:05.642Z,977.18
2018-04-05T04:52:05.584Z,977.19
2018-04-05T04:53:05.524Z,977.25
2018-04-05T04:54:05.466Z,977.29
2018-04-05T04:55:05.408Z,977.23
2018-04-05T04:56:05.349Z,977.25
2018-04-05T04:57:05.297Z,977.25
2018-04-05T04:58:05.232Z,977.31
2018-04-05T04:59:05.174Z,977.27
2018-04-05T05:00:05.117Z,977.30
2018-04-05T05:01:05.065Z,977.40
2018-04-05T05:02:05.002Z,977.35
2018-04-05T05:03:04.939Z,977.40
2018-04-05T05:04:04.882Z,977.43
2018-04-05T05:05:04.824Z,977.45
2018-04-05T05:06:04.771Z,977.45
2018-04-05T05:07:04.705Z,977.43
2018-04-05T05:08:04.647Z,977.47
2018-04-05T05:09:04.589Z,977.50
2018-04-05T05:10:04.536Z,977.54
2018-04-05T05:11:04.473Z,977.52
2018-04-05T05:12:04.413Z,977.52
2018-04-05T05:13:04.354Z,977.56
2018-04-05T05:14:04.298Z,977.54
2018-04-05T05:15:04.244Z,977.55
2018-04-05T05:16:04.180Z,977.66
2018-04-05T05:17:04.122Z,977.66
2018-04-05T05:18:04.063Z,977.64
2018-04-05T05:19:04.217Z,977.61
2018-04-05T05:20:03.956Z,977.70
2018-04-05T05:21:03.891Z,977.64
2018-04-05T05:22:03.831Z,977.64
2018-04-05T05:23:03.769Z,977.71
2018-04-05T05:24:03.712Z,977.71
2018-04-05T05:25:03.656Z,977.72
2018-04-05T05:26:03.595Z,977.76
2018-04-05T05:27:03.538Z,977.78
2018-04-05T05:28:03.478Z,977.82
2018-04-05T05:29:03.420Z,977.77
2018-04-05T05:30:03.362Z,977.79
2018-04-05T05:31:03.303Z,977.76
2018-04-05T05:32:03.247Z,977.83
2018-04-05T05:33:03.189Z,977.83
2018-04-05T05:34:03.129Z,977.81
2018-04-05T05:35:03.069Z,977.88
2018-04-05T05:36:03.014Z,977.87
2018-04-05T05:37:02.953Z,977.86
2018-04-05T05:38:02.895Z,977.89
2018-04-05T05:39:02.835Z,977.98
2018-04-05T05:40:02.778Z,977.93
2018-04-05T05:41:02.721Z,977.93
2018-04-05T05:42:02.661Z,977.90
2018-04-05T05:43:02.603Z,977.93
2018-04-05T05:44:02.546Z,977.96
2018-04-05T05:45:02.485Z,977.99
2018-04-05T05:46:02.430Z,978.02
2018-04-05T05:47:02.370Z,977.94
2018-04-05T05:48:02.310Z,977.94
2018-04-05T05:49:02.252Z,977.93
2018-04-05T05:50:02.198Z,977.96
2018-04-05T05:51:02.136Z,977.97
2018-04-05T05:52:02.083Z,977.96
2018-04-05T05:53:02.019Z,977.97
2018-04-05T05:54:01.962Z,978.00
2018-04-05T05:55:01.904Z,978.04
2018-04-05T05:56:01.845Z,978.09
2018-04-05T05:57:01.787Z,978.08
2018-04-05T05:58:01.728Z,978.04
2018-04-05T05:59:01.671Z,978.03
2018-04-05T06:00:01.612Z,978.11
2018-04-05T06:01:01.553Z,978.12
2018-04-05T06:02:01.497Z,978.11
2018-04-05T06:03:01.436Z,978.12
2018-04-05T06:04:01.380Z,978.15
2018-04-05T06:05:01.322Z,978.16
2018-04-05T06:06:01.263Z,978.09
2018-04-05T06:07:01.203Z,978.13
2018-04-05T06:08:01.147Z,978.14
2018-04-05T06:09:01.090Z,978.18
2018-04-05T06:10:01.031Z,978.21
2018-04-05T06:11:00.971Z,978.23
2018-04-05T06:12:00.915Z,978.24
2018-04-05T06:13:00.856Z,978.21
2018-04-05T06:14:00.799Z,978.22
2018-04-05T06:15:00.739Z,978.32
2018-04-05T06:16:00.694Z,978.30
2018-04-05T06:17:00.623Z,978.23
2018-04-05T06:18:00.594Z,978.26
2018-04-05T06:19:00.507Z,978.27
2018-04-05T06:20:00.555Z,978.27
2018-04-05T06:21:00.396Z,978.25
2018-04-05T06:22:00.335Z,978.25
2018-04-05T06:23:00.277Z,978.24
2018-04-05T06:24:00.219Z,978.25
2018-04-05T06:25:00.165Z,978.29
2018-04-05T06:26:00.107Z,978.26
2018-04-05T06:27:00.053Z,978.27
2018-04-05T06:27:59.989Z,978.29
2018-04-05T06:28:59.935Z,978.32
2018-04-05T06:29:59.880Z,978.30
2018-04-05T06:30:59.816Z,978.28
2018-04-05T06:31:59.758Z,978.28
2018-04-05T06:32:59.704Z,978.25
2018-04-05T06:33:59.643Z,978.30
2018-04-05T06:34:59.584Z,978.30
2018-04-05T06:35:59.534Z,978.30
2018-04-05T06:36:59.470Z,978.33
2018-04-05T06:37:59.413Z,978.27
2018-04-05T06:38:59.354Z,978.33
2018-04-05T06:39:59.298Z,978.34
2018-04-05T06:40:59.240Z,978.35
2018-04-05T06:41:59.183Z,978.28
2018-04-05T06:42:59.129Z,978.34
2018-04-05T06:43:59.067Z,978.32
2018-04-05T06:44:59.022Z,978.36
2018-04-05T06:45:58.958Z,978.33
2018-04-05T06:46:58.923Z,978.34
2018-04-05T06:47:58.836Z,978.30
2018-04-05T06:48:58.780Z,978.36
2018-04-05T06:49:58.723Z,978.32
2018-04-05T06:50:58.666Z,978.36
2018-04-05T06:51:58.607Z,978.39
2018-04-05T06:52:58.550Z,978.34
2018-04-05T06:53:58.492Z,978.36
2018-04-05T06:54:58.436Z,978.30
2018-04-05T06:55:58.378Z,978.38
2018-04-05T06:56:58.321Z,978.38
2018-04-05T06:57:58.264Z,978.43
2018-04-05T06:58:58.206Z,978.38
2018-04-05T06:59:58.150Z,978.43
2018-04-05T07:00:58.092Z,978.38
2018-04-05T07:01:58.035Z,978.39
2018-04-05T07:02:57.991Z,978.30
2018-04-05T07:03:57.919Z,978.41
2018-04-05T07:04:57.866Z,978.38
2018-04-05T07:05:57.806Z,978.53
2018-04-05T07:06:57.748Z,978.40
2018-04-05T07:07:57.690Z,978.52
2018-04-05T07:08:57.633Z,978.56
2018-04-05T07:09:57.577Z,978.46
2018-04-05T07:10:57.520Z,978.53
2018-04-05T07:11:57.460Z,978.51
2018-04-05T07:12:57.404Z,978.54
2018-04-05T07:13:57.349Z,978.52
2018-04-05T07:14:57.289Z,978.54
2018-04-05T07:15:57.231Z,978.53
2018-04-05T07:16:57.237Z,978.45
2018-04-05T07:17:57.118Z,978.38
2018-04-05T07:18:57.063Z,978.40
2018-04-05T07:19:57.005Z,978.45
2018-04-05T07:20:56.947Z,978.44
2018-04-05T07:21:56.889Z,978.44
2018-04-05T07:22:56.830Z,978.43
2018-04-05T07:23:56.774Z,978.40
2018-04-05T07:24:56.718Z,978.40
2018-04-05T07:25:56.662Z,978.20
2018-04-05T07:26:56.605Z,978.39
2018-04-05T07:27:56.547Z,978.43
2018-04-05T07:28:56.489Z,978.45
2018-04-05T07:29:56.433Z,978.44
2018-04-05T07:30:56.376Z,978.48
2018-04-05T07:31:56.320Z,978.47
2018-04-05T07:32:56.263Z,978.44
2018-04-05T07:33:56.208Z,978.52
2018-04-05T07:34:56.151Z,978.45
2018-04-05T07:35:56.094Z,978.52
2018-04-05T07:36:56.037Z,978.49
2018-04-05T07:37:55.980Z,978.48
2018-04-05T07:38:55.922Z,978.46
2018-04-05T07:39:55.866Z,978.45
2018-04-05T07:40:55.814Z,978.48
2018-04-05T07:41:55.798Z,978.48
2018-04-05T07:42:55.696Z,978.50
2018-04-05T07:43:55.641Z,978.60
2018-04-05T07:44:55.585Z,978.57
2018-04-05T07:45:55.529Z,978.59
2018-04-05T07:46:55.473Z,978.62
2018-04-05T07:47:55.415Z,978.68
2018-04-05T07:48:55.361Z,978.60
2018-04-05T07:49:55.303Z,978.64
2018-04-05T07:50:55.251Z,978.63
2018-04-05T07:51:55.189Z,978.62
2018-04-05T07:52:55.134Z,978.70
2018-04-05T07:53:55.075Z,978.66
2018-04-05T07:54:55.018Z,978.64
2018-04-05T07:55:54.962Z,978.70
2018-04-05T07:56:54.907Z,978.66
2018-04-05T07:57:54.849Z,978.69
2018-04-05T07:58:54.800Z,978.59
2018-04-05T07:59:54.738Z,978.65
2018-04-05T08:00:54.679Z,978.68
2018-04-05T08:01:54.622Z,978.72
2018-04-05T08:02:54.564Z,978.67
2018-04-05T08:03:54.509Z,978.72
2018-04-05T08:04:54.451Z,978.77
2018-04-05T08:05:54.395Z,978.75
2018-04-05T08:06:54.335Z,978.79
2018-04-05T08:07:54.280Z,978.78
2018-04-05T08:08:54.223Z,978.78
2018-04-05T08:09:54.167Z,978.78
2018-04-05T08:10:54.108Z,978.83
2018-04-05T08:11:54.105Z,978.81
2018-04-05T08:12:53.995Z,978.82
2018-04-05T08:13:53.942Z,978.82
2018-04-05T08:14:53.881Z,978.85
2018-04-05T08:15:53.824Z,978.74
2018-04-05T08:16:53.768Z,978.86
2018-04-05T08:17:53.712Z,978.85
2018-04-05T08:18:53.653Z,978.78
2018-04-05T08:19:53.599Z,978.82
2018-04-05T08:20:53.541Z,978.85
2018-04-05T08:21:53.484Z,978.86
2018-04-05T08:22:53.427Z,978.89
2018-04-05T08:23:53.370Z,978.91
2018-04-05T08:24:53.317Z,978.93
2018-04-05T08:25:53.292Z,978.95
2018-04-05T08:26:53.201Z,978.89
2018-04-05T08:27:53.142Z,978.98
2018-04-05T08:28:53.085Z,979.05
2018-04-05T08:29:53.030Z,979.00
2018-04-05T08:30:52.972Z,979.06
2018-04-05T08:31:52.916Z,979.12
2018-04-05T08:32:52.858Z,979.10
2018-04-05T08:33:52.802Z,979.09
2018-04-05T08:34:52.747Z,979.13
2018-04-05T08:35:52.689Z,979.10
2018-04-05T08:36:52.634Z,979.16
2018-04-05T08:37:52.582Z,979.11
2018-04-05T08:38:52.519Z,979.13
2018-04-05T08:39:52.462Z,979.13
2018-04-05T08:40:52.405Z,979.21
2018-04-05T08:41:52.349Z,979.14
2018-04-05T08:42:52.297Z,979.07
2018-04-05T08:43:52.236Z,979.06
2018-04-05T08:44:52.180Z,979.12
2018-04-05T08:45:52.126Z,979.10
2018-04-05T08:46:52.067Z,979.16
2018-04-05T08:47:52.010Z,979.13
2018-04-05T08:48:51.957Z,979.16
2018-04-05T08:49:51.898Z,979.02
2018-04-05T08:50:51.841Z,979.11
2018-04-05T08:51:51.784Z,979.06
2018-04-05T08:52:51.729Z,979.02
2018-04-05T08:53:51.673Z,978.99
2018-04-05T08:54:51.616Z,979.09
2018-04-05T08:55:51.585Z,979.05
2018-04-05T08:56:51.503Z,979.13
2018-04-05T08:57:51.445Z,979.11
2018-04-05T08:58:51.390Z,979.17
2018-04-05T08:59:51.333Z,979.12
2018-04-05T09:00:51.279Z,979.16
2018-04-05T09:01:51.221Z,979.20
2018-04-05T09:02:51.165Z,979.25
2018-04-05T09:03:51.106Z,979.22
2018-04-05T09:04:51.049Z,979.34
2018-04-05T09:05:50.994Z,979.32
2018-04-05T09:06:50.935Z,979.33
2018-04-05T09:07:50.879Z,979.39
2018-04-05T09:08:50.823Z,979.35
2018-04-05T09:09:50.766Z,979.38
2018-04-05T09:10:50.710Z,979.44
2018-04-05T09:11:50.659Z,979.31
2018-04-05T09:12:50.597Z,979.45
2018-04-05T09:13:50.539Z,979.42
2018-04-05T09:14:50.483Z,979.40
2018-04-05T09:15:50.425Z,979.42
2018-04-05T09:16:50.374Z,979.43
2018-04-05T09:17:50.318Z,979.48
2018-04-05T09:18:50.255Z,979.44
2018-04-05T09:19:50.200Z,979.40
2018-04-05T09:20:50.144Z,979.47
2018-04-05T09:21:50.086Z,979.44
2018-04-05T09:22:50.030Z,979.47
2018-04-05T09:23:49.974Z,979.46
2018-04-05T09:24:49.915Z,979.49
2018-04-05T09:25:49.860Z,979.47
2018-04-05T09:26:49.802Z,979.44
2018-04-05T09:27:49.746Z,979.46
2018-04-05T09:28:49.711Z,979.47
2018-04-05T09:29:49.635Z,979.51
2018-04-05T09:30:49.577Z,979.48
2018-04-05T09:31:49.521Z,979.49
2018-04-05T09:32:49.467Z,979.56
2018-04-05T09:33:49.409Z,979.49
2018-04-05T09:34:49.353Z,979.46
2018-04-05T09:35:49.297Z,979.45
2018-04-05T09:36:49.243Z,979.40
2018-04-05T09:37:49.186Z,979.44
2018-04-05T09:38:49.130Z,979.45
2018-04-05T09:39:49.074Z,979.44
2018-04-05T09:40:49.024Z,979.45
2018-04-05T09:41:48.973Z,979.51
2018-04-05T09:42:48.910Z,979.54
2018-04-05T09:43:48.853Z,979.55
2018-04-05T09:44:48.798Z,979.63
2018-04-05T09:45:48.741Z,979.57
2018-04-05T09:46:48.727Z,979.53
2018-04-05T09:47:48.630Z,979.54
2018-04-05T09:48:48.577Z,979.73
2018-04-05T09:49:48.521Z,979.66
2018-04-05T09:50:48.464Z,979.61
2018-04-05T09:51:48.410Z,979.66
2018-04-05T09:52:48.353Z,979.68
2018-04-05T09:53:48.298Z,979.76
2018-04-05T09:54:48.241Z,979.79
2018-04-05T09:55:48.184Z,979.72
2018-04-05T09:56:48.136Z,979.71
2018-04-05T09:57:48.074Z,979.70
2018-04-05T09:58:48.021Z,979.63
2018-04-05T09:59:47.962Z,979.63
2018-04-05T10:00:47.907Z,979.60
2018-04-05T10:01:47.853Z,979.85
2018-04-05T10:02:47.796Z,979.78
2018-04-05T10:03:47.740Z,979.74
2018-04-05T10:04:47.685Z,979.78
2018-04-05T10:05:47.633Z,979.81
2018-04-05T10:06:47.574Z,979.86
2018-04-05T10:07:47.520Z,979.86
2018-04-05T10:08:47.469Z,979.78
2018-04-05T10:09:47.478Z,979.74
2018-04-05T10:10:47.353Z,979.83
2018-04-05T10:11:47.302Z,979.83
2018-04-05T10:12:47.244Z,979.75
2018-04-05T10:13:47.189Z,979.71
2018-04-05T10:14:47.133Z,979.73
2018-04-05T10:15:47.084Z,979.77
2018-04-05T10:16:47.023Z,979.72
2018-04-05T10:17:46.968Z,979.80
2018-04-05T10:18:46.912Z,979.86
2018-04-05T10:19:46.857Z,979.79
2018-04-05T10:20:46.801Z,979.77
2018-04-05T10:21:46.761Z,979.77
2018-04-05T10:22:46.691Z,979.76
2018-04-05T10:23:46.636Z,979.82
2018-04-05T10:24:46.584Z,979.84
2018-04-05T10:25:46.527Z,979.81
2018-04-05T10:26:46.468Z,979.84
2018-04-05T10:27:46.417Z,979.85
2018-04-05T10:28:46.360Z,979.94
2018-04-05T10:29:46.305Z,979.91
2018-04-05T10:30:46.248Z,979.87
2018-04-05T10:31:46.194Z,979.89
2018-04-05T10:32:46.139Z,979.86
2018-04-05T10:33:46.082Z,979.92
2018-04-05T10:34:46.025Z,979.86
2018-04-05T10:35:46.050Z,979.87
2018-04-05T10:36:45.916Z,979.92
2018-04-05T10:37:45.858Z,979.90
2018-04-05T10:38:45.801Z,980.00
2018-04-05T10:39:45.747Z,980.03
2018-04-05T10:40:45.691Z,980.08
2018-04-05T10:41:45.695Z,980.00
2018-04-05T10:42:45.581Z,980.11
2018-04-05T10:43:45.523Z,980.13
2018-04-05T10:44:45.467Z,980.18
2018-04-05T10:45:45.412Z,980.14
2018-04-05T10:46:45.355Z,980.14
2018-04-05T10:47:45.301Z,980.13
2018-04-05T10:48:45.245Z,980.09
2018-04-05T10:49:45.190Z,980.12
2018-04-05T10:50:45.129Z,980.15
2018-04-05T10:51:45.075Z,980.22
2018-04-05T10:52:45.018Z,980.26
2018-04-05T10:53:44.961Z,980.41
2018-04-05T10:54:44.905Z,980.51
2018-04-05T10:55:44.853Z,980.55
2018-04-05T10:56:44.791Z,980.58
2018-04-05T10:57:44.736Z,980.63
2018-04-05T10:58:44.684Z,980.67
2018-04-05T10:59:44.621Z,980.70
2018-04-05T11:00:44.564Z,980.64
2018-04-05T11:01:44.508Z,980.63
2018-04-05T11:02:44.450Z,980.62
2018-04-05T11:03:44.404Z,980.67
2018-04-05T11:04:44.338Z,980.67
2018-04-05T11:05:44.281Z,980.61
2018-04-05T11:06:44.223Z,980.69
2018-04-05T11:07:44.166Z,980.70
2018-04-05T11:08:44.110Z,980.73
2018-04-05T11:09:44.051Z,980.74
2018-04-05T11:10:43.995Z,980.75
2018-04-05T11:11:43.939Z,980.70
2018-04-05T11:12:43.880Z,980.71
2018-04-05T11:13:43.824Z,980.73
2018-04-05T11:14:43.765Z,980.73
2018-04-05T11:15:43.709Z,980.75
2018-04-05T11:16:43.652Z,980.65
2018-04-05T11:17:43.596Z,980.65
2018-04-05T11:18:43.539Z,980.63
2018-04-05T11:19:43.491Z,980.54
2018-04-05T11:20:43.429Z,980.59
2018-04-05T11:21:43.370Z,980.62
2018-04-05T11:22:43.311Z,980.56
2018-04-05T11:23:43.254Z,980.56
2018-04-05T11:24:43.198Z,980.52
2018-04-05T11:25:43.142Z,980.57
2018-04-05T11:26:43.084Z,980.53
2018-04-05T11:27:43.028Z,980.57
2018-04-05T11:28:42.974Z,980.63
2018-04-05T11:29:42.914Z,980.67
2018-04-05T11:30:42.857Z,980.71
2018-04-05T11:31:42.802Z,980.68
2018-04-05T11:32:42.744Z,980.68
2018-04-05T11:33:42.690Z,980.68
2018-04-05T11:34:42.633Z,980.73
2018-04-05T11:35:42.581Z,980.76
2018-04-05T11:36:42.519Z,980.82
2018-04-05T11:37:42.463Z,980.86
2018-04-05T11:38:42.405Z,980.91
2018-04-05T11:39:42.349Z,980.84
2018-04-05T11:40:42.295Z,980.90
2018-04-05T11:41:42.237Z,980.87
2018-04-05T11:42:42.178Z,980.91
2018-04-05T11:43:42.122Z,980.84
2018-04-05T11:44:42.066Z,980.84
2018-04-05T11:45:42.009Z,980.98
2018-04-05T11:46:41.951Z,980.90
2018-04-05T11:47:41.894Z,980.97
2018-04-05T11:48:41.841Z,980.92
2018-04-05T11:49:41.785Z,980.91
2018-04-05T11:50:41.724Z,980.88
2018-04-05T11:51:41.667Z,980.91
2018-04-05T11:52:41.611Z,980.84
2018-04-05T11:53:41.553Z,980.82
2018-04-05T11:54:41.496Z,980.86
2018-04-05T11:55:41.439Z,980.79
2018-04-05T11:56:41.386Z,980.85
2018-04-05T11:57:41.330Z,980.86
2018-04-05T11:58:41.270Z,980.90
2018-04-05T11:59:41.212Z,980.95
2018-04-05T12:00:41.162Z,980.95
2018-04-05T12:01:41.102Z,980.89
2018-04-05T12:02:41.044Z,980.85
2018-04-05T12:03:40.991Z,980.93
2018-04-05T12:04:40.930Z,980.84
2018-04-05T12:05:40.874Z,980.94
2018-04-05T12:06:40.817Z,980.96
2018-04-05T12:07:40.816Z,981.01
2018-04-05T12:08:40.705Z,981.14
2018-04-05T12:09:40.648Z,981.48
2018-04-05T12:10:40.592Z,981.60
2018-04-05T12:11:40.539Z,981.54
2018-04-05T12:12:40.477Z,981.71
2018-04-05T12:13:40.422Z,981.77
2018-04-05T12:14:40.365Z,981.74
2018-04-05T12:15:40.306Z,981.75
2018-04-05T12:16:40.249Z,981.82
2018-04-05T12:17:40.192Z,981.78
2018-04-05T12:18:40.135Z,981.83
2018-04-05T12:19:40.077Z,981.80
2018-04-05T12:20:40.019Z,981.90
2018-04-05T12:21:39.963Z,981.86
2018-04-05T12:22:39.904Z,981.87
2018-04-05T12:23:39.846Z,981.91
2018-04-05T12:24:39.790Z,981.89
2018-04-05T12:25:39.730Z,981.84
2018-04-05T12:26:39.670Z,982.11
2018-04-05T12:27:39.618Z,982.00